sensor_id;sensor_type;location;lat;lon;timestamp;pressure;altitude;pressure_sealevel;temperature;humidity
71857;BME280;63344;46.980;28.882;2023-02-13T00:00:33;102613.56;;;-1.64;68.49
71857;BME280;63344;46.980;28.882;2023-02-13T00:03:18;102610.13;;;-1.63;68.69
71857;BME280;63344;46.980;28.882;2023-02-13T00:05:46;102615.34;;;-1.63;68.23
71857;BME280;63344;46.980;28.882;2023-02-13T00:08:13;102617.88;;;-1.64;68.54
71857;BME280;63344;46.980;28.882;2023-02-13T00:10:40;102623.16;;;-1.63;68.75
71857;BME280;63344;46.980;28.882;2023-02-13T00:13:07;102621.41;;;-1.62;68.24
71857;BME280;63344;46.980;28.882;2023-02-13T00:15:34;102622.06;;;-1.68;68.37
71857;BME280;63344;46.980;28.882;2023-02-13T00:18:02;102616.22;;;-1.62;68.52
71857;BME280;63344;46.980;28.882;2023-02-13T00:20:29;102615.41;;;-1.61;68.07
71857;BME280;63344;46.980;28.882;2023-02-13T00:22:58;102607.44;;;-1.64;68.33
71857;BME280;63344;46.980;28.882;2023-02-13T00:25:25;102605.75;;;-1.64;68.08
71857;BME280;63344;46.980;28.882;2023-02-13T00:27:53;102618.13;;;-1.58;68.22
71857;BME280;63344;46.980;28.882;2023-02-13T00:30:20;102609.34;;;-1.60;68.28
71857;BME280;63344;46.980;28.882;2023-02-13T00:32:48;102608.63;;;-1.57;67.91
71857;BME280;63344;46.980;28.882;2023-02-13T00:35:15;102605.31;;;-1.53;68.00
71857;BME280;63344;46.980;28.882;2023-02-13T00:37:42;102602.09;;;-1.48;68.06
71857;BME280;63344;46.980;28.882;2023-02-13T00:40:10;102604.81;;;-1.45;67.99
71857;BME280;63344;46.980;28.882;2023-02-13T00:42:37;102604.03;;;-1.42;67.83
71857;BME280;63344;46.980;28.882;2023-02-13T00:45:04;102612.88;;;-1.38;67.65
71857;BME280;63344;46.980;28.882;2023-02-13T00:47:32;102592.91;;;-1.38;67.65
71857;BME280;63344;46.980;28.882;2023-02-13T00:50:00;102602.66;;;-1.34;67.82
71857;BME280;63344;46.980;28.882;2023-02-13T00:52:27;102599.22;;;-1.33;67.63
71857;BME280;63344;46.980;28.882;2023-02-13T00:54:54;102605.53;;;-1.28;67.42
71857;BME280;63344;46.980;28.882;2023-02-13T00:57:22;102609.09;;;-1.26;67.66
71857;BME280;63344;46.980;28.882;2023-02-13T00:59:49;102610.22;;;-1.19;67.45
71857;BME280;63344;46.980;28.882;2023-02-13T01:02:17;102612.06;;;-1.16;67.49
71857;BME280;63344;46.980;28.882;2023-02-13T01:04:44;102605.91;;;-1.18;67.63
71857;BME280;63344;46.980;28.882;2023-02-13T01:07:12;102613.25;;;-1.10;67.27
71857;BME280;63344;46.980;28.882;2023-02-13T01:09:42;102616.97;;;-1.03;67.47
71857;BME280;63344;46.980;28.882;2023-02-13T01:12:10;102615.31;;;-1.01;67.30
71857;BME280;63344;46.980;28.882;2023-02-13T01:14:37;102616.38;;;-0.96;67.35
71857;BME280;63344;46.980;28.882;2023-02-13T01:17:04;102616.53;;;-0.93;67.01
71857;BME280;63344;46.980;28.882;2023-02-13T01:19:32;102612.31;;;-0.89;67.06
71857;BME280;63344;46.980;28.882;2023-02-13T01:21:59;102594.84;;;-0.92;66.91
71857;BME280;63344;46.980;28.882;2023-02-13T01:24:26;102594.94;;;-0.89;66.97
71857;BME280;63344;46.980;28.882;2023-02-13T01:26:56;102598.56;;;-0.85;67.06
71857;BME280;63344;46.980;28.882;2023-02-13T01:29:23;102598.66;;;-0.84;67.00
71857;BME280;63344;46.980;28.882;2023-02-13T01:31:50;102599.59;;;-0.82;66.88
71857;BME280;63344;46.980;28.882;2023-02-13T01:34:18;102593.47;;;-0.82;66.78
71857;BME280;63344;46.980;28.882;2023-02-13T01:36:45;102592.88;;;-0.75;66.89
71857;BME280;63344;46.980;28.882;2023-02-13T01:39:12;102591.06;;;-0.77;66.84
71857;BME280;63344;46.980;28.882;2023-02-13T01:41:40;102587.59;;;-0.76;66.80
71857;BME280;63344;46.980;28.882;2023-02-13T01:47:13;102582.53;;;-0.73;66.70
71857;BME280;63344;46.980;28.882;2023-02-13T01:49:43;102582.53;;;-0.73;66.54
71857;BME280;63344;46.980;28.882;2023-02-13T01:52:13;102583.47;;;-0.71;66.62
71857;BME280;63344;46.980;28.882;2023-02-13T01:54:41;102589.72;;;-0.68;67.14
71857;BME280;63344;46.980;28.882;2023-02-13T01:57:13;102584.53;;;-0.66;66.62
71857;BME280;63344;46.980;28.882;2023-02-13T01:59:52;102579.19;;;-0.69;66.93
71857;BME280;63344;46.980;28.882;2023-02-13T02:02:21;102593.06;;;-0.70;66.70
71857;BME280;63344;46.980;28.882;2023-02-13T02:04:49;102586.09;;;-0.71;66.91
71857;BME280;63344;46.980;28.882;2023-02-13T02:07:23;102587.81;;;-0.72;67.02
71857;BME280;63344;46.980;28.882;2023-02-13T02:09:55;102584.25;;;-0.74;67.20
71857;BME280;63344;46.980;28.882;2023-02-13T02:12:32;102588.63;;;-0.73;67.03
71857;BME280;63344;46.980;28.882;2023-02-13T02:15:03;102578.25;;;-0.71;67.25
71857;BME280;63344;46.980;28.882;2023-02-13T02:17:32;102579.13;;;-0.71;66.88
71857;BME280;63344;46.980;28.882;2023-02-13T02:32:23;102589.50;;;-0.72;67.10
71857;BME280;63344;46.980;28.882;2023-02-13T02:35:07;102592.25;;;-0.69;67.22
71857;BME280;63344;46.980;28.882;2023-02-13T02:49:12;102589.41;;;-0.75;67.51
71857;BME280;63344;46.980;28.882;2023-02-13T02:52:11;102600.00;;;-0.71;67.46
71857;BME280;63344;46.980;28.882;2023-02-13T02:54:51;102594.72;;;-0.72;67.49
71857;BME280;63344;46.980;28.882;2023-02-13T03:00:40;102606.19;;;-0.69;67.79
71857;BME280;63344;46.980;28.882;2023-02-13T03:03:28;102591.41;;;-0.68;67.92
71857;BME280;63344;46.980;28.882;2023-02-13T03:07:14;102592.34;;;-0.66;67.82
71857;BME280;63344;46.980;28.882;2023-02-13T03:09:26;102586.38;;;-0.64;68.27
71857;BME280;63344;46.980;28.882;2023-02-13T03:12:18;102582.13;;;-0.62;67.91
71857;BME280;63344;46.980;28.882;2023-02-13T03:15:05;102580.97;;;-0.68;68.25
71857;BME280;63344;46.980;28.882;2023-02-13T03:17:33;102588.09;;;-0.64;68.11
71857;BME280;63344;46.980;28.882;2023-02-13T03:23:56;102589.03;;;-0.62;68.71
71857;BME280;63344;46.980;28.882;2023-02-13T03:26:56;102575.03;;;-0.64;68.62
71857;BME280;63344;46.980;28.882;2023-02-13T03:29:59;102570.66;;;-0.65;68.75
71857;BME280;63344;46.980;28.882;2023-02-13T03:35:40;102563.88;;;-0.60;68.76
71857;BME280;63344;46.980;28.882;2023-02-13T03:38:42;102568.13;;;-0.64;69.09
71857;BME280;63344;46.980;28.882;2023-02-13T03:41:14;102558.63;;;-0.62;69.06
71857;BME280;63344;46.980;28.882;2023-02-13T03:46:16;102573.66;;;-0.56;68.82
71857;BME280;63344;46.980;28.882;2023-02-13T03:48:45;102573.66;;;-0.56;69.07
71857;BME280;63344;46.980;28.882;2023-02-13T03:51:53;102572.88;;;-0.53;68.99
71857;BME280;63344;46.980;28.882;2023-02-13T03:54:32;102566.78;;;-0.52;68.96
71857;BME280;63344;46.980;28.882;2023-02-13T03:57:20;102560.59;;;-0.56;68.89
71857;BME280;63344;46.980;28.882;2023-02-13T04:00:11;102569.47;;;-0.51;69.18
71857;BME280;63344;46.980;28.882;2023-02-13T04:03:02;102559.97;;;-0.49;68.91
71857;BME280;63344;46.980;28.882;2023-02-13T04:05:36;102557.28;;;-0.52;69.12
71857;BME280;63344;46.980;28.882;2023-02-13T04:08:06;102564.38;;;-0.48;69.07
71857;BME280;63344;46.980;28.882;2023-02-13T04:10:41;102563.31;;;-0.53;68.88
71857;BME280;63344;46.980;28.882;2023-02-13T04:13:31;102565.09;;;-0.52;69.08
71857;BME280;63344;46.980;28.882;2023-02-13T04:16:07;102563.13;;;-0.57;68.79
71857;BME280;63344;46.980;28.882;2023-02-13T04:18:36;102563.19;;;-0.56;68.86
71857;BME280;63344;46.980;28.882;2023-02-13T04:21:06;102563.94;;;-0.58;69.02
71857;BME280;63344;46.980;28.882;2023-02-13T04:23:34;102566.47;;;-0.62;68.84
71857;BME280;63344;46.980;28.882;2023-02-13T04:26:06;102565.28;;;-0.70;68.81
71857;BME280;63344;46.980;28.882;2023-02-13T04:28:34;102568.63;;;-0.72;69.01
71857;BME280;63344;46.980;28.882;2023-02-13T04:31:02;102559.78;;;-0.76;68.91
71857;BME280;63344;46.980;28.882;2023-02-13T04:33:29;102564.97;;;-0.77;69.10
71857;BME280;63344;46.980;28.882;2023-02-13T04:35:56;102564.78;;;-0.82;69.08
71857;BME280;63344;46.980;28.882;2023-02-13T04:38:23;102575.19;;;-0.82;69.33
71857;BME280;63344;46.980;28.882;2023-02-13T04:40:51;102573.53;;;-0.80;69.47
71857;BME280;63344;46.980;28.882;2023-02-13T04:43:18;102568.94;;;-0.87;69.50
71857;BME280;63344;46.980;28.882;2023-02-13T04:45:49;102573.84;;;-0.95;69.62
71857;BME280;63344;46.980;28.882;2023-02-13T04:48:16;102577.22;;;-0.97;69.78
71857;BME280;63344;46.980;28.882;2023-02-13T04:50:44;102581.28;;;-1.04;69.87
71857;BME280;63344;46.980;28.882;2023-02-13T04:53:11;102594.22;;;-1.07;69.66
71857;BME280;63344;46.980;28.882;2023-02-13T04:55:39;102585.94;;;-1.18;69.56
71857;BME280;63344;46.980;28.882;2023-02-13T04:58:09;102578.78;;;-1.24;70.54
71857;BME280;63344;46.980;28.882;2023-02-13T05:00:36;102580.44;;;-1.26;70.46
71857;BME280;63344;46.980;28.882;2023-02-13T05:03:08;102601.28;;;-1.26;71.10
71857;BME280;63344;46.980;28.882;2023-02-13T05:05:47;102591.56;;;-1.30;71.46
71857;BME280;63344;46.980;28.882;2023-02-13T05:08:15;102581.69;;;-1.37;71.74
71857;BME280;63344;46.980;28.882;2023-02-13T05:10:42;102582.38;;;-1.41;71.50
71857;BME280;63344;46.980;28.882;2023-02-13T05:13:09;102584.66;;;-1.49;71.71
71857;BME280;63344;46.980;28.882;2023-02-13T05:15:38;102591.44;;;-1.52;71.76
71857;BME280;63344;46.980;28.882;2023-02-13T05:18:05;102588.66;;;-1.57;72.29
71857;BME280;63344;46.980;28.882;2023-02-13T05:20:33;102590.94;;;-1.65;71.92
71857;BME280;63344;46.980;28.882;2023-02-13T05:23:00;102581.28;;;-1.67;72.17
71857;BME280;63344;46.980;28.882;2023-02-13T05:25:46;102586.25;;;-1.72;72.04
71857;BME280;63344;46.980;28.882;2023-02-13T05:28:13;102602.81;;;-1.71;72.15
71857;BME280;63344;46.980;28.882;2023-02-13T05:31:00;102600.81;;;-1.77;72.30
71857;BME280;63344;46.980;28.882;2023-02-13T05:33:28;102611.94;;;-1.81;72.78
71857;BME280;63344;46.980;28.882;2023-02-13T05:35:57;102611.66;;;-1.87;72.23
71857;BME280;63344;46.980;28.882;2023-02-13T05:38:29;102619.25;;;-1.92;72.32
71857;BME280;63344;46.980;28.882;2023-02-13T05:40:59;102620.84;;;-1.95;72.52
71857;BME280;63344;46.980;28.882;2023-02-13T05:43:27;102616.06;;;-2.06;72.61
71857;BME280;63344;46.980;28.882;2023-02-13T05:46:05;102617.53;;;-2.11;72.49
71857;BME280;63344;46.980;28.882;2023-02-13T05:48:32;102616.31;;;-2.19;72.83
71857;BME280;63344;46.980;28.882;2023-02-13T05:51:00;102636.53;;;-2.13;72.55
71857;BME280;63344;46.980;28.882;2023-02-13T05:53:27;102632.97;;;-2.15;72.79
71857;BME280;63344;46.980;28.882;2023-02-13T05:55:56;102620.81;;;-2.15;72.91
71857;BME280;63344;46.980;28.882;2023-02-13T05:58:24;102613.78;;;-2.17;73.18
71857;BME280;63344;46.980;28.882;2023-02-13T06:00:54;102620.06;;;-2.12;73.29
71857;BME280;63344;46.980;28.882;2023-02-13T06:03:26;102610.53;;;-2.12;73.12
71857;BME280;63344;46.980;28.882;2023-02-13T06:05:55;102615.91;;;-2.09;73.21
71857;BME280;63344;46.980;28.882;2023-02-13T06:08:23;102613.50;;;-2.04;73.60
71857;BME280;63344;46.980;28.882;2023-02-13T06:10:53;102614.41;;;-2.04;73.95
71857;BME280;63344;46.980;28.882;2023-02-13T06:13:20;102610.78;;;-2.07;73.91
71857;BME280;63344;46.980;28.882;2023-02-13T06:15:47;102610.16;;;-2.02;74.01
71857;BME280;63344;46.980;28.882;2023-02-13T06:18:16;102610.88;;;-2.04;73.74
71857;BME280;63344;46.980;28.882;2023-02-13T06:20:44;102607.41;;;-2.05;73.89
71857;BME280;63344;46.980;28.882;2023-02-13T06:23:11;102617.13;;;-2.01;73.39
71857;BME280;63344;46.980;28.882;2023-02-13T06:25:39;102606.53;;;-2.05;73.87
71857;BME280;63344;46.980;28.882;2023-02-13T06:28:07;102610.28;;;-1.98;73.49
71857;BME280;63344;46.980;28.882;2023-02-13T06:30:35;102615.00;;;-1.90;73.42
71857;BME280;63344;46.980;28.882;2023-02-13T06:33:03;102612.63;;;-1.85;73.63
71857;BME280;63344;46.980;28.882;2023-02-13T06:35:32;102621.78;;;-1.74;73.89
71857;BME280;63344;46.980;28.882;2023-02-13T06:37:59;102619.47;;;-1.68;73.55
71857;BME280;63344;46.980;28.882;2023-02-13T06:40:26;102610.28;;;-1.59;73.61
71857;BME280;63344;46.980;28.882;2023-02-13T06:42:53;102603.53;;;-1.54;73.67
71857;BME280;63344;46.980;28.882;2023-02-13T06:45:21;102611.84;;;-1.42;73.34
71857;BME280;63344;46.980;28.882;2023-02-13T06:47:53;102615.75;;;-1.32;73.38
71857;BME280;63344;46.980;28.882;2023-02-13T06:50:20;102603.66;;;-1.30;73.38
71857;BME280;63344;46.980;28.882;2023-02-13T06:52:49;102601.56;;;-1.18;73.39
71857;BME280;63344;46.980;28.882;2023-02-13T06:55:17;102611.69;;;-1.05;73.18
71857;BME280;63344;46.980;28.882;2023-02-13T06:57:46;102598.91;;;-0.98;72.79
71857;BME280;63344;46.980;28.882;2023-02-13T07:00:18;102609.88;;;-0.85;73.07
71857;BME280;63344;46.980;28.882;2023-02-13T07:02:52;102607.47;;;-0.80;72.55
71857;BME280;63344;46.980;28.882;2023-02-13T07:05:20;102610.38;;;-0.72;71.88
71857;BME280;63344;46.980;28.882;2023-02-13T07:07:47;102602.94;;;-0.63;71.70
71857;BME280;63344;46.980;28.882;2023-02-13T07:10:15;102601.50;;;-0.55;71.72
71857;BME280;63344;46.980;28.882;2023-02-13T07:12:42;102600.00;;;-0.48;71.80
71857;BME280;63344;46.980;28.882;2023-02-13T07:15:14;102590.75;;;-0.40;71.32
71857;BME280;63344;46.980;28.882;2023-02-13T07:17:41;102583.94;;;-0.36;71.00
71857;BME280;63344;46.980;28.882;2023-02-13T07:20:09;102577.47;;;-0.24;70.44
71857;BME280;63344;46.980;28.882;2023-02-13T07:22:39;102576.97;;;-0.13;70.49
71857;BME280;63344;46.980;28.882;2023-02-13T07:25:07;102582.47;;;-0.06;70.47
71857;BME280;63344;46.980;28.882;2023-02-13T07:27:35;102576.69;;;0.03;70.02
71857;BME280;63344;46.980;28.882;2023-02-13T07:30:02;102578.91;;;0.16;69.52
71857;BME280;63344;46.980;28.882;2023-02-13T07:32:31;102579.94;;;0.22;68.98
71857;BME280;63344;46.980;28.882;2023-02-13T07:34:58;102568.75;;;0.24;68.21
71857;BME280;63344;46.980;28.882;2023-02-13T07:37:29;102585.59;;;0.34;68.34
71857;BME280;63344;46.980;28.882;2023-02-13T07:39:57;102574.31;;;0.35;68.13
71857;BME280;63344;46.980;28.882;2023-02-13T07:42:24;102581.59;;;0.44;68.01
71857;BME280;63344;46.980;28.882;2023-02-13T07:44:52;102565.16;;;0.48;67.87
71857;BME280;63344;46.980;28.882;2023-02-13T07:47:20;102569.00;;;0.57;67.52
71857;BME280;63344;46.980;28.882;2023-02-13T07:49:47;102558.72;;;0.64;67.59
71857;BME280;63344;46.980;28.882;2023-02-13T07:52:14;102559.78;;;0.69;66.99
71857;BME280;63344;46.980;28.882;2023-02-13T07:54:42;102553.72;;;0.70;67.16
71857;BME280;63344;46.980;28.882;2023-02-13T07:57:14;102555.66;;;0.75;67.10
71857;BME280;63344;46.980;28.882;2023-02-13T07:59:42;102548.94;;;0.84;66.99
71857;BME280;63344;46.980;28.882;2023-02-13T08:02:13;102550.06;;;0.92;66.78
71857;BME280;63344;46.980;28.882;2023-02-13T08:04:42;102537.34;;;1.03;66.31
71857;BME280;63344;46.980;28.882;2023-02-13T08:07:13;102537.59;;;1.10;66.10
71857;BME280;63344;46.980;28.882;2023-02-13T08:09:45;102551.94;;;1.23;65.74
71857;BME280;63344;46.980;28.882;2023-02-13T08:12:34;102539.91;;;1.30;65.40
71857;BME280;63344;46.980;28.882;2023-02-13T08:15:02;102548.28;;;1.47;64.99
71857;BME280;63344;46.980;28.882;2023-02-13T08:17:30;102544.22;;;1.56;64.45
71857;BME280;63344;46.980;28.882;2023-02-13T08:19:58;102541.13;;;1.71;64.58
71857;BME280;63344;46.980;28.882;2023-02-13T08:22:25;102538.50;;;1.70;64.37
71857;BME280;63344;46.980;28.882;2023-02-13T08:24:52;102534.47;;;1.83;64.45
71857;BME280;63344;46.980;28.882;2023-02-13T08:27:20;102535.63;;;1.92;63.85
71857;BME280;63344;46.980;28.882;2023-02-13T08:29:49;102526.97;;;1.95;62.98
71857;BME280;63344;46.980;28.882;2023-02-13T08:32:17;102534.22;;;2.05;63.22
71857;BME280;63344;46.980;28.882;2023-02-13T08:34:48;102535.25;;;2.10;63.01
71857;BME280;63344;46.980;28.882;2023-02-13T08:37:16;102519.47;;;2.09;62.96
71857;BME280;63344;46.980;28.882;2023-02-13T08:39:44;102530.28;;;2.21;62.98
71857;BME280;63344;46.980;28.882;2023-02-13T08:42:11;102530.50;;;2.29;62.75
71857;BME280;63344;46.980;28.882;2023-02-13T08:44:42;102530.66;;;2.35;62.13
71857;BME280;63344;46.980;28.882;2023-02-13T08:47:09;102522.97;;;2.43;62.50
71857;BME280;63344;46.980;28.882;2023-02-13T08:49:37;102530.94;;;2.47;61.81
71857;BME280;63344;46.980;28.882;2023-02-13T08:52:04;102523.22;;;2.52;61.81
71857;BME280;63344;46.980;28.882;2023-02-13T08:54:33;102525.13;;;2.59;62.02
71857;BME280;63344;46.980;28.882;2023-02-13T08:57:00;102517.50;;;2.68;61.92
71857;BME280;63344;46.980;28.882;2023-02-13T08:59:27;102510.75;;;2.79;61.02
71857;BME280;63344;46.980;28.882;2023-02-13T09:01:56;102514.28;;;2.80;60.90
71857;BME280;63344;46.980;28.882;2023-02-13T09:04:24;102523.88;;;2.79;61.03
71857;BME280;63344;46.980;28.882;2023-02-13T09:06:52;102514.34;;;2.82;60.58
71857;BME280;63344;46.980;28.882;2023-02-13T09:09:19;102506.28;;;2.74;60.76
71857;BME280;63344;46.980;28.882;2023-02-13T09:11:47;102501.13;;;2.78;60.67
71857;BME280;63344;46.980;28.882;2023-02-13T09:14:17;102501.13;;;2.78;59.80
71857;BME280;63344;46.980;28.882;2023-02-13T09:16:49;102499.44;;;2.81;59.65
71857;BME280;63344;46.980;28.882;2023-02-13T09:19:16;102498.75;;;2.89;59.58
71857;BME280;63344;46.980;28.882;2023-02-13T09:21:55;102480.38;;;3.29;59.51
71857;BME280;63344;46.980;28.882;2023-02-13T09:24:36;102479.44;;;5.28;55.83
71857;BME280;63344;46.980;28.882;2023-02-13T09:27:04;102469.03;;;7.50;52.06
71857;BME280;63344;46.980;28.882;2023-02-13T09:29:32;102448.66;;;9.46;45.80
71857;BME280;63344;46.980;28.882;2023-02-13T09:31:59;102448.91;;;10.46;43.71
71857;BME280;63344;46.980;28.882;2023-02-13T09:34:27;102456.63;;;11.51;41.38
71857;BME280;63344;46.980;28.882;2023-02-13T09:36:54;102438.31;;;12.49;39.86
71857;BME280;63344;46.980;28.882;2023-02-13T09:39:21;102455.16;;;13.45;37.81
71857;BME280;63344;46.980;28.882;2023-02-13T09:41:51;102443.19;;;14.38;34.79
71857;BME280;63344;46.980;28.882;2023-02-13T09:47:29;102463.63;;;10.83;37.01
71857;BME280;63344;46.980;28.882;2023-02-13T09:50:10;102452.13;;;9.65;39.37
71857;BME280;63344;46.980;28.882;2023-02-13T09:52:43;102446.25;;;8.80;40.43
71857;BME280;63344;46.980;28.882;2023-02-13T09:58:14;102444.41;;;9.11;40.92
71857;BME280;63344;46.980;28.882;2023-02-13T10:00:53;102430.97;;;9.49;41.03
71857;BME280;63344;46.980;28.882;2023-02-13T10:03:43;102426.94;;;11.15;38.89
71857;BME280;63344;46.980;28.882;2023-02-13T10:09:43;102412.19;;;12.68;33.96
71857;BME280;63344;46.980;28.882;2023-02-13T10:15:33;102418.84;;;11.25;35.41
71857;BME280;63344;46.980;28.882;2023-02-13T10:18:13;102400.88;;;10.68;36.49
71857;BME280;63344;46.980;28.882;2023-02-13T10:20:51;102404.53;;;11.97;35.25
71857;BME280;63344;46.980;28.882;2023-02-13T10:23:35;102398.22;;;12.54;33.19
71857;BME280;63344;46.980;28.882;2023-02-13T10:26:20;102398.28;;;13.41;32.19
71857;BME280;63344;46.980;28.882;2023-02-13T10:28:57;102391.53;;;14.37;30.69
71857;BME280;63344;46.980;28.882;2023-02-13T10:31:47;102376.00;;;13.81;29.66
71857;BME280;63344;46.980;28.882;2023-02-13T10:34:21;102381.38;;;12.99;30.76
71857;BME280;63344;46.980;28.882;2023-02-13T10:36:52;102377.09;;;12.45;31.11
71857;BME280;63344;46.980;28.882;2023-02-13T10:39:27;102385.81;;;12.02;32.40
71857;BME280;63344;46.980;28.882;2023-02-13T10:42:06;102372.72;;;12.41;32.16
71857;BME280;63344;46.980;28.882;2023-02-13T10:44:54;102367.91;;;12.11;32.09
71857;BME280;63344;46.980;28.882;2023-02-13T10:59:09;102343.53;;;11.23;32.65
71857;BME280;63344;46.980;28.882;2023-02-13T11:02:24;102338.63;;;10.89;32.00
71857;BME280;63344;46.980;28.882;2023-02-13T11:05:00;102339.13;;;10.46;32.58
71857;BME280;63344;46.980;28.882;2023-02-13T11:07:29;102323.03;;;10.58;32.54
71857;BME280;63344;46.980;28.882;2023-02-13T11:10:04;102317.41;;;10.86;31.90
71857;BME280;63344;46.980;28.882;2023-02-13T11:12:32;102325.38;;;10.86;32.40
71857;BME280;63344;46.980;28.882;2023-02-13T11:15:03;102334.53;;;11.30;31.67
71857;BME280;63344;46.980;28.882;2023-02-13T11:17:34;102321.47;;;11.73;31.08
71857;BME280;63344;46.980;28.882;2023-02-13T11:20:06;102321.66;;;13.06;29.47
71857;BME280;63344;46.980;28.882;2023-02-13T11:22:36;102315.53;;;13.02;29.58
71857;BME280;63344;46.980;28.882;2023-02-13T11:25:16;102312.75;;;13.46;29.08
71857;BME280;63344;46.980;28.882;2023-02-13T11:27:45;102317.31;;;13.42;28.58
71857;BME280;63344;46.980;28.882;2023-02-13T11:30:30;102315.84;;;12.87;29.27
71857;BME280;63344;46.980;28.882;2023-02-13T11:33:17;102298.06;;;12.86;29.80
71857;BME280;63344;46.980;28.882;2023-02-13T11:35:47;102293.13;;;12.67;29.45
71857;BME280;63344;46.980;28.882;2023-02-13T11:40:44;102292.31;;;12.64;30.56
71857;BME280;63344;46.980;28.882;2023-02-13T11:43:21;102291.53;;;13.02;29.78
71857;BME280;63344;46.980;28.882;2023-02-13T11:46:20;102286.19;;;13.41;30.11
71857;BME280;63344;46.980;28.882;2023-02-13T11:51:56;102277.50;;;14.03;28.79
71857;BME280;63344;46.980;28.882;2023-02-13T11:54:34;102273.88;;;14.39;28.44
71857;BME280;63344;46.980;28.882;2023-02-13T11:59:52;102254.00;;;14.80;27.61
71857;BME280;63344;46.980;28.882;2023-02-13T12:04:51;102256.63;;;13.11;29.03
71857;BME280;63344;46.980;28.882;2023-02-13T12:09:59;102259.19;;;12.32;30.86
71857;BME280;63344;46.980;28.882;2023-02-13T12:12:33;102255.34;;;13.29;29.30
71857;BME280;63344;46.980;28.882;2023-02-13T12:15:14;102252.47;;;13.39;28.77
71857;BME280;63344;46.980;28.882;2023-02-13T12:17:44;102247.44;;;11.97;30.61
71857;BME280;63344;46.980;28.882;2023-02-13T12:20:16;102253.09;;;11.23;31.64
71857;BME280;63344;46.980;28.882;2023-02-13T12:23:19;102246.69;;;11.90;31.53
71857;BME280;63344;46.980;28.882;2023-02-13T12:46:14;102237.59;;;13.27;31.44
71857;BME280;63344;46.980;28.882;2023-02-13T12:48:54;102227.75;;;13.30;31.96
71857;BME280;63344;46.980;28.882;2023-02-13T12:51:44;102220.75;;;12.44;33.44
71857;BME280;63344;46.980;28.882;2023-02-13T12:57:41;102223.44;;;10.15;38.46
71857;BME280;63344;46.980;28.882;2023-02-13T13:11:57;102222.91;;;8.62;44.21
71857;BME280;63344;46.980;28.882;2023-02-13T13:28:35;102197.50;;;7.96;49.30
71857;BME280;63344;46.980;28.882;2023-02-13T13:31:04;102196.66;;;7.87;50.43
71857;BME280;63344;46.980;28.882;2023-02-13T13:33:39;102199.34;;;7.77;50.89
71857;BME280;63344;46.980;28.882;2023-02-13T13:47:03;102173.81;;;7.06;53.92
71857;BME280;63344;46.980;28.882;2023-02-13T13:49:49;102186.13;;;7.07;54.40
71857;BME280;63344;46.980;28.882;2023-02-13T13:52:29;102175.53;;;6.93;54.90
71857;BME280;63344;46.980;28.882;2023-02-13T14:04:02;102151.66;;;6.37;57.58
71857;BME280;63344;46.980;28.882;2023-02-13T14:09:41;102147.22;;;6.29;58.20
71857;BME280;63344;46.980;28.882;2023-02-13T14:15:01;102136.66;;;6.18;58.43
71857;BME280;63344;46.980;28.882;2023-02-13T14:17:50;102155.13;;;6.18;58.71
71857;BME280;63344;46.980;28.882;2023-02-13T14:20:36;102147.19;;;6.16;58.51
71857;BME280;63344;46.980;28.882;2023-02-13T14:23:12;102141.03;;;6.16;58.64
71857;BME280;63344;46.980;28.882;2023-02-13T14:26:20;102125.19;;;6.13;59.02
71857;BME280;63344;46.980;28.882;2023-02-13T14:31:31;102137.47;;;6.05;59.59
71857;BME280;63344;46.980;28.882;2023-02-13T14:34:18;102140.09;;;6.00;59.18
71857;BME280;63344;46.980;28.882;2023-02-13T14:37:18;102135.66;;;5.96;59.74
71857;BME280;63344;46.980;28.882;2023-02-13T14:40:26;102140.94;;;5.99;59.77
71857;BME280;63344;46.980;28.882;2023-02-13T14:43:27;102133.03;;;6.01;59.67
71857;BME280;63344;46.980;28.882;2023-02-13T14:48:45;102140.06;;;5.97;60.10
71857;BME280;63344;46.980;28.882;2023-02-13T14:51:20;102128.56;;;5.87;59.90
71857;BME280;63344;46.980;28.882;2023-02-13T14:53:58;102130.31;;;5.88;59.88
71857;BME280;63344;46.980;28.882;2023-02-13T14:56:27;102133.78;;;5.81;60.44
71857;BME280;63344;46.980;28.882;2023-02-13T14:59:01;102123.22;;;5.75;61.01
71857;BME280;63344;46.980;28.882;2023-02-13T15:01:46;102124.94;;;5.67;61.25
71857;BME280;63344;46.980;28.882;2023-02-13T15:04:52;102127.53;;;5.57;61.16
71857;BME280;63344;46.980;28.882;2023-02-13T15:07:22;102115.19;;;5.52;61.72
71857;BME280;63344;46.980;28.882;2023-02-13T15:09:58;102118.72;;;5.55;61.40
71857;BME280;63344;46.980;28.882;2023-02-13T15:12:36;102123.97;;;5.54;61.34
71857;BME280;63344;46.980;28.882;2023-02-13T15:15:25;102123.91;;;5.43;61.93
71857;BME280;63344;46.980;28.882;2023-02-13T15:17:58;102107.19;;;5.33;62.45
71857;BME280;63344;46.980;28.882;2023-02-13T15:20:33;102121.22;;;5.34;62.41
71857;BME280;63344;46.980;28.882;2023-02-13T15:23:02;102119.41;;;5.27;62.93
71857;BME280;63344;46.980;28.882;2023-02-13T15:25:37;102129.88;;;5.19;62.62
71857;BME280;63344;46.980;28.882;2023-02-13T15:28:07;102117.53;;;5.10;63.38
71857;BME280;63344;46.980;28.882;2023-02-13T15:31:34;102111.34;;;5.07;63.90
71857;BME280;63344;46.980;28.882;2023-02-13T15:33:46;102105.09;;;4.89;64.18
71857;BME280;63344;46.980;28.882;2023-02-13T15:36:20;102133.19;;;4.95;65.02
71857;BME280;63344;46.980;28.882;2023-02-13T15:38:47;102139.28;;;4.88;65.47
71857;BME280;63344;46.980;28.882;2023-02-13T15:41:21;102139.16;;;4.77;65.50
71857;BME280;63344;46.980;28.882;2023-02-13T15:43:55;102122.41;;;4.66;65.98
71857;BME280;63344;46.980;28.882;2023-02-13T15:46:29;102139.19;;;4.78;67.07
71857;BME280;63344;46.980;28.882;2023-02-13T15:49:00;102134.72;;;4.70;67.02
71857;BME280;63344;46.980;28.882;2023-02-13T15:51:31;102123.22;;;4.63;67.04